HAZ3451 ZGGG-ZSNB
Flight info
| Callsign | HAZ3451 |
|---|---|
| Flight time | N/A |
| Altitude | 35100 |
| Route | BOVMA9 BOVMA DCT PLT A599 ELNEX G204 SHZ SHZ91A |
| Aircraft | B77W/H-SDE1E2E3FGHIJ2J3J4J5M1RWXY/LB1D1 |
Departure
| Time | 2026-04-28 02:52 |
|---|---|
| Airport | Guangzhou Baiyun International Airport (ZGGG) |
Arrival
| Time | N/A |
|---|---|
| Airport | Ningbo Lishe International Airport (ZSNB) |
| Time | Latitude | Longitude | Altitude | Speed | Heading |
|---|---|---|---|---|---|
| 2026-04-28 02:34 | 23.39073 | 113.30416 | 57 ft | 0 kts | 330° |
| 2026-04-28 02:43 | 23.39065 | 113.30421 | 57 ft | 2 kts | 335° |
| 2026-04-28 02:43 | 23.39051 | 113.30428 | 57 ft | 2 kts | 332° |
| 2026-04-28 02:43 | 23.39038 | 113.30435 | 57 ft | 2 kts | 329° |
| 2026-04-28 02:44 | 23.39025 | 113.30442 | 57 ft | 2 kts | 356° |
| 2026-04-28 02:44 | 23.39010 | 113.30440 | 57 ft | 2 kts | 28° |
| 2026-04-28 02:44 | 23.38999 | 113.30429 | 57 ft | 2 kts | 56° |
| 2026-04-28 02:44 | 23.38993 | 113.30415 | 57 ft | 2 kts | 83° |
| 2026-04-28 02:45 | 23.38993 | 113.30404 | 57 ft | 0 kts | 103° |
| 2026-04-28 02:45 | 23.38994 | 113.30399 | 57 ft | 0 kts | 104° |
| 2026-04-28 02:47 | 23.38988 | 113.30424 | 57 ft | 6 kts | 104° |
| 2026-04-28 02:47 | 23.38974 | 113.30487 | 57 ft | 10 kts | 102° |
| 2026-04-28 02:47 | 23.38956 | 113.30572 | 57 ft | 12 kts | 103° |
| 2026-04-28 02:47 | 23.38934 | 113.30663 | 57 ft | 11 kts | 112° |
| 2026-04-28 02:48 | 23.38872 | 113.30688 | 57 ft | 10 kts | 192° |
| 2026-04-28 02:48 | 23.38797 | 113.30664 | 57 ft | 14 kts | 194° |
| 2026-04-28 02:48 | 23.38665 | 113.30629 | 57 ft | 24 kts | 193° |
| 2026-04-28 02:48 | 23.38482 | 113.30579 | 57 ft | 27 kts | 195° |
| 2026-04-28 02:49 | 23.38305 | 113.30533 | 57 ft | 25 kts | 193° |
| 2026-04-28 02:49 | 23.38137 | 113.30489 | 57 ft | 23 kts | 193° |
| 2026-04-28 02:49 | 23.37986 | 113.30450 | 57 ft | 21 kts | 193° |
| 2026-04-28 02:49 | 23.37850 | 113.30405 | 57 ft | 19 kts | 196° |
| 2026-04-28 02:50 | 23.37722 | 113.30372 | 57 ft | 18 kts | 193° |
| 2026-04-28 02:50 | 23.37653 | 113.30362 | 57 ft | 9 kts | 172° |
| 2026-04-28 02:50 | 23.37606 | 113.30402 | 57 ft | 9 kts | 110° |
| 2026-04-28 02:50 | 23.37591 | 113.30467 | 57 ft | 8 kts | 103° |
| 2026-04-28 02:51 | 23.37595 | 113.30527 | 57 ft | 7 kts | 61° |
| 2026-04-28 02:51 | 23.37639 | 113.30553 | 57 ft | 7 kts | 13° |
| 2026-04-28 02:51 | 23.37738 | 113.30579 | 57 ft | 37 kts | 14° |
| 2026-04-28 02:51 | 23.38245 | 113.30716 | 58 ft | 109 kts | 14° |
| 2026-04-28 02:52 | 23.39192 | 113.30975 | 58 ft | 168 kts | 15° |
| 2026-04-28 02:52 | 23.40443 | 113.31312 | 333 ft | 195 kts | 14° |
| 2026-04-28 02:52 | 23.41781 | 113.31683 | 1090 ft | 201 kts | 18° |
| 2026-04-28 02:52 | 23.43111 | 113.32090 | 1845 ft | 204 kts | 19° |
| 2026-04-28 02:53 | 23.44529 | 113.32520 | 2248 ft | 223 kts | 18° |
| 2026-04-28 02:53 | 23.46111 | 113.32993 | 2741 ft | 243 kts | 18° |
| 2026-04-28 02:53 | 23.47805 | 113.33497 | 3260 ft | 262 kts | 17° |
| 2026-04-28 02:53 | 23.49624 | 113.34038 | 3850 ft | 278 kts | 17° |
| 2026-04-28 02:54 | 23.51494 | 113.34593 | 4691 ft | 282 kts | 16° |
| 2026-04-28 02:54 | 23.53401 | 113.35161 | 5492 ft | 288 kts | 15° |
| 2026-04-28 02:54 | 23.55371 | 113.35740 | 6215 ft | 296 kts | 13° |
| 2026-04-28 02:54 | 23.57399 | 113.36182 | 7038 ft | 299 kts | 9° |
| 2026-04-28 02:55 | 23.59437 | 113.36566 | 7930 ft | 299 kts | 8° |
| 2026-04-28 02:55 | 23.61390 | 113.37270 | 8732 ft | 304 kts | 30° |
| 2026-04-28 02:55 | 23.62959 | 113.38811 | 9437 ft | 311 kts | 56° |
| 2026-04-28 02:55 | 23.63862 | 113.40966 | 10194 ft | 315 kts | 75° |
| 2026-04-28 02:56 | 23.64400 | 113.43329 | 10700 ft | 330 kts | 79° |
| 2026-04-28 02:56 | 23.64899 | 113.45802 | 11153 ft | 346 kts | 79° |
| 2026-04-28 02:56 | 23.65437 | 113.48418 | 11621 ft | 362 kts | 78° |
| 2026-04-28 02:56 | 23.66012 | 113.51167 | 12117 ft | 378 kts | 78° |
| 2026-04-28 02:57 | 23.66606 | 113.53997 | 12614 ft | 393 kts | 78° |
| 2026-04-28 02:57 | 23.67227 | 113.56953 | 13157 ft | 406 kts | 78° |
| 2026-04-28 02:57 | 23.67863 | 113.59975 | 13818 ft | 416 kts | 78° |
| 2026-04-28 02:57 | 23.68511 | 113.63059 | 14638 ft | 420 kts | 78° |
| 2026-04-28 02:58 | 23.69163 | 113.66166 | 15523 ft | 422 kts | 78° |
| 2026-04-28 02:58 | 23.69818 | 113.69289 | 16315 ft | 427 kts | 78° |
| 2026-04-28 02:58 | 23.70484 | 113.72465 | 17043 ft | 433 kts | 78° |
| 2026-04-28 02:58 | 23.71150 | 113.75645 | 17728 ft | 439 kts | 78° |
| 2026-04-28 02:59 | 23.71836 | 113.78925 | 18480 ft | 443 kts | 78° |
| 2026-04-28 02:59 | 23.72512 | 113.82160 | 19236 ft | 445 kts | 78° |
| 2026-04-28 02:59 | 23.73207 | 113.85489 | 19915 ft | 450 kts | 78° |
| 2026-04-28 02:59 | 23.73900 | 113.88811 | 20559 ft | 455 kts | 78° |
| 2026-04-28 03:00 | 23.74597 | 113.92158 | 21234 ft | 458 kts | 78° |
| 2026-04-28 03:00 | 23.75308 | 113.95579 | 21910 ft | 460 kts | 78° |
| 2026-04-28 03:00 | 23.76010 | 113.98955 | 22507 ft | 464 kts | 78° |
| 2026-04-28 03:00 | 23.76722 | 114.02385 | 23070 ft | 469 kts | 78° |
| 2026-04-28 03:01 | 23.77448 | 114.05888 | 23609 ft | 474 kts | 77° |
| 2026-04-28 03:01 | 23.78183 | 114.09435 | 24225 ft | 477 kts | 77° |
| 2026-04-28 03:01 | 23.78924 | 114.13017 | 24798 ft | 481 kts | 77° |
| 2026-04-28 03:01 | 23.79741 | 114.16549 | 25242 ft | 488 kts | 72° |
| 2026-04-28 03:02 | 23.81023 | 114.19986 | 25748 ft | 492 kts | 63° |
| 2026-04-28 03:02 | 23.82828 | 114.23265 | 26315 ft | 496 kts | 53° |
| 2026-04-28 03:02 | 23.85063 | 114.26193 | 26872 ft | 498 kts | 44° |
| 2026-04-28 03:02 | 23.87618 | 114.28686 | 27365 ft | 501 kts | 36° |
| 2026-04-28 03:03 | 23.90573 | 114.30803 | 27838 ft | 504 kts | 26° |
| 2026-04-28 03:03 | 23.93767 | 114.32396 | 28378 ft | 505 kts | 18° |
| 2026-04-28 03:03 | 23.97177 | 114.33470 | 28926 ft | 506 kts | 10° |
| 2026-04-28 03:03 | 24.00665 | 114.34324 | 29578 ft | 508 kts | 10° |
| 2026-04-28 03:04 | 24.04155 | 114.35201 | 30356 ft | 507 kts | 10° |
| 2026-04-28 03:04 | 24.07578 | 114.36098 | 31172 ft | 505 kts | 11° |
| 2026-04-28 03:04 | 24.11031 | 114.37033 | 31962 ft | 503 kts | 11° |
| 2026-04-28 03:04 | 24.14434 | 114.37973 | 32581 ft | 503 kts | 11° |
| 2026-04-28 03:05 | 24.17864 | 114.38937 | 33125 ft | 505 kts | 11° |
| 2026-04-28 03:05 | 24.21311 | 114.39920 | 33783 ft | 505 kts | 11° |
| 2026-04-28 03:05 | 24.24700 | 114.40897 | 34567 ft | 501 kts | 11° |
| 2026-04-28 03:05 | 24.28094 | 114.41880 | 35086 ft | 502 kts | 11° |
| 2026-04-28 03:06 | 24.31506 | 114.42873 | 35104 ft | 501 kts | 11° |
| 2026-04-28 03:06 | 24.38271 | 114.44856 | 35107 ft | 498 kts | 11° |
| 2026-04-28 03:07 | 24.44981 | 114.46832 | 35109 ft | 497 kts | 11° |
| 2026-04-28 03:07 | 24.51634 | 114.48798 | 35107 ft | 495 kts | 11° |
| 2026-04-28 03:08 | 24.58358 | 114.50790 | 35100 ft | 496 kts | 11° |
| 2026-04-28 03:08 | 24.65065 | 114.52779 | 35092 ft | 496 kts | 11° |
| 2026-04-28 03:09 | 24.71793 | 114.54778 | 35080 ft | 496 kts | 11° |
| 2026-04-28 03:09 | 24.78469 | 114.56765 | 35079 ft | 497 kts | 11° |
| 2026-04-28 03:10 | 24.85203 | 114.58771 | 35084 ft | 497 kts | 11° |
| 2026-04-28 03:10 | 24.91877 | 114.60762 | 35090 ft | 495 kts | 11° |
| 2026-04-28 03:11 | 24.98571 | 114.62760 | 35095 ft | 495 kts | 11° |
| 2026-04-28 03:11 | 25.05234 | 114.64752 | 35097 ft | 497 kts | 11° |
| 2026-04-28 03:12 | 25.11982 | 114.66773 | 35073 ft | 493 kts | 11° |
| 2026-04-28 03:12 | 25.18639 | 114.68767 | 35068 ft | 496 kts | 11° |
| 2026-04-28 03:13 | 25.25357 | 114.70782 | 35059 ft | 492 kts | 11° |
| 2026-04-28 03:13 | 25.31996 | 114.72775 | 35059 ft | 493 kts | 11° |
| 2026-04-28 03:14 | 25.38705 | 114.74792 | 35062 ft | 492 kts | 11° |
| 2026-04-28 03:14 | 25.45307 | 114.76779 | 35063 ft | 492 kts | 11° |
| 2026-04-28 03:15 | 25.51963 | 114.78785 | 35057 ft | 492 kts | 11° |
| 2026-04-28 03:15 | 25.58623 | 114.80795 | 35046 ft | 492 kts | 11° |
| 2026-04-28 03:16 | 25.65257 | 114.82798 | 35048 ft | 493 kts | 11° |
| 2026-04-28 03:16 | 25.71879 | 114.84801 | 35051 ft | 491 kts | 11° |
| 2026-04-28 03:17 | 25.78441 | 114.87203 | 35060 ft | 496 kts | 22° |
| 2026-04-28 03:17 | 25.84208 | 114.91582 | 35062 ft | 507 kts | 41° |
| 2026-04-28 03:17 | 25.86650 | 114.94353 | 35064 ft | 506 kts | 44° |
| 2026-04-28 03:18 | 25.91496 | 115.00114 | 35059 ft | 508 kts | 45° |
| 2026-04-28 03:18 | 25.96312 | 115.05846 | 35053 ft | 507 kts | 45° |
| 2026-04-28 03:19 | 26.01143 | 115.11596 | 35051 ft | 507 kts | 44° |
| 2026-04-28 03:19 | 26.05957 | 115.17330 | 35045 ft | 507 kts | 44° |
| 2026-04-28 03:20 | 26.10782 | 115.23083 | 35047 ft | 507 kts | 44° |
| 2026-04-28 03:20 | 26.15613 | 115.28848 | 35045 ft | 508 kts | 44° |
| 2026-04-28 03:21 | 26.20438 | 115.34613 | 35046 ft | 509 kts | 44° |
| 2026-04-28 03:21 | 26.25258 | 115.40380 | 35058 ft | 507 kts | 44° |
| 2026-04-28 03:22 | 26.30095 | 115.46174 | 35068 ft | 508 kts | 44° |
| 2026-04-28 03:22 | 26.34927 | 115.51969 | 35070 ft | 509 kts | 44° |
| 2026-04-28 03:23 | 26.39718 | 115.57725 | 35069 ft | 507 kts | 44° |
| 2026-04-28 03:23 | 26.44577 | 115.63567 | 35068 ft | 508 kts | 44° |
| 2026-04-28 03:24 | 26.49386 | 115.69358 | 35046 ft | 508 kts | 44° |
| 2026-04-28 03:24 | 26.54179 | 115.75138 | 35053 ft | 506 kts | 44° |
| 2026-04-28 03:25 | 26.59025 | 115.80988 | 35055 ft | 506 kts | 44° |
| 2026-04-28 03:25 | 26.63828 | 115.86795 | 35059 ft | 505 kts | 44° |
| 2026-04-28 03:26 | 26.68582 | 115.92551 | 35060 ft | 506 kts | 44° |
| 2026-04-28 03:26 | 26.73374 | 115.98360 | 35057 ft | 505 kts | 44° |
| 2026-04-28 03:27 | 26.78173 | 116.04185 | 35060 ft | 504 kts | 44° |
| 2026-04-28 03:27 | 26.82932 | 116.09968 | 35061 ft | 505 kts | 44° |
| 2026-04-28 03:28 | 26.87719 | 116.15795 | 35064 ft | 504 kts | 43° |
| 2026-04-28 03:28 | 26.92479 | 116.21595 | 35065 ft | 504 kts | 43° |
| 2026-04-28 03:29 | 26.97294 | 116.27399 | 35072 ft | 507 kts | 43° |
| 2026-04-28 03:29 | 27.02115 | 116.33209 | 35073 ft | 504 kts | 43° |
| 2026-04-28 03:30 | 27.06943 | 116.39036 | 35067 ft | 505 kts | 43° |
| 2026-04-28 03:30 | 27.11726 | 116.44817 | 35054 ft | 506 kts | 43° |
| 2026-04-28 03:31 | 27.16514 | 116.50615 | 35042 ft | 506 kts | 43° |
| 2026-04-28 03:31 | 27.21284 | 116.56398 | 35035 ft | 505 kts | 42° |
| 2026-04-28 03:32 | 27.26184 | 116.62112 | 35036 ft | 507 kts | 41° |
| 2026-04-28 03:32 | 27.31105 | 116.67826 | 35025 ft | 507 kts | 42° |
| 2026-04-28 03:33 | 27.36092 | 116.73631 | 35027 ft | 510 kts | 42° |
| 2026-04-28 03:33 | 27.41005 | 116.79365 | 35025 ft | 508 kts | 42° |
| 2026-04-28 03:34 | 27.45958 | 116.85153 | 35036 ft | 508 kts | 42° |
| 2026-04-28 03:34 | 27.50852 | 116.90883 | 35046 ft | 508 kts | 41° |
| 2026-04-28 03:35 | 27.55805 | 116.96635 | 35054 ft | 509 kts | 41° |
| 2026-04-28 03:35 | 27.60752 | 117.02349 | 35058 ft | 507 kts | 41° |
| 2026-04-28 03:36 | 27.65725 | 117.08102 | 35056 ft | 508 kts | 41° |
| 2026-04-28 03:36 | 27.70677 | 117.13842 | 35059 ft | 507 kts | 41° |
| 2026-04-28 03:37 | 27.75620 | 117.19579 | 35062 ft | 507 kts | 41° |
| 2026-04-28 03:37 | 27.80539 | 117.25298 | 35083 ft | 506 kts | 41° |
| 2026-04-28 03:38 | 27.85517 | 117.31094 | 35085 ft | 508 kts | 41° |
| 2026-04-28 03:38 | 27.90405 | 117.36791 | 35072 ft | 508 kts | 41° |
| 2026-04-28 03:39 | 27.95286 | 117.42491 | 35069 ft | 506 kts | 41° |
| 2026-04-28 03:39 | 28.00196 | 117.48231 | 35056 ft | 508 kts | 41° |
| 2026-04-28 03:40 | 28.05155 | 117.54037 | 35053 ft | 506 kts | 41° |
| 2026-04-28 03:40 | 28.10013 | 117.59730 | 35061 ft | 512 kts | 41° |
| 2026-04-28 03:41 | 28.15065 | 117.65653 | 35055 ft | 532 kts | 41° |
| 2026-04-28 03:41 | 28.20199 | 117.71688 | 35032 ft | 532 kts | 41° |
| 2026-04-28 03:42 | 28.25290 | 117.77683 | 35022 ft | 532 kts | 41° |
| 2026-04-28 03:42 | 28.30454 | 117.83770 | 35026 ft | 534 kts | 41° |
| 2026-04-28 03:43 | 28.35571 | 117.89812 | 35032 ft | 534 kts | 41° |
| 2026-04-28 03:43 | 28.40738 | 117.95921 | 35034 ft | 532 kts | 42° |
| 2026-04-28 03:44 | 28.45850 | 118.02114 | 35039 ft | 532 kts | 43° |
| 2026-04-28 03:44 | 28.50896 | 118.08337 | 35035 ft | 532 kts | 43° |
| 2026-04-28 03:45 | 28.55981 | 118.14610 | 35043 ft | 532 kts | 43° |
| 2026-04-28 03:45 | 28.61022 | 118.20833 | 35045 ft | 533 kts | 43° |
| 2026-04-28 03:46 | 28.66044 | 118.27039 | 35045 ft | 533 kts | 43° |
| 2026-04-28 03:46 | 28.71144 | 118.33350 | 35038 ft | 531 kts | 43° |
| 2026-04-28 03:47 | 28.76153 | 118.39557 | 35050 ft | 531 kts | 43° |
| 2026-04-28 03:47 | 28.81167 | 118.45779 | 35052 ft | 530 kts | 43° |
| 2026-04-28 03:48 | 28.86210 | 118.52047 | 35061 ft | 532 kts | 43° |
| 2026-04-28 03:48 | 28.91215 | 118.58276 | 35055 ft | 533 kts | 43° |
| 2026-04-28 03:49 | 28.96285 | 118.64597 | 35050 ft | 531 kts | 43° |
| 2026-04-28 03:49 | 29.01343 | 118.70911 | 35040 ft | 531 kts | 44° |
| 2026-04-28 03:50 | 29.06355 | 118.77179 | 35067 ft | 533 kts | 44° |
| 2026-04-28 03:50 | 29.11396 | 118.83491 | 35071 ft | 533 kts | 44° |
| 2026-04-28 03:51 | 29.16425 | 118.89801 | 35079 ft | 533 kts | 44° |
| 2026-04-28 03:51 | 29.21441 | 118.96104 | 35082 ft | 531 kts | 44° |
| 2026-04-28 03:52 | 29.26427 | 119.02379 | 35081 ft | 531 kts | 44° |
| 2026-04-28 03:52 | 29.31431 | 119.08691 | 35086 ft | 536 kts | 44° |
| 2026-04-28 03:53 | 29.36456 | 119.15044 | 35089 ft | 533 kts | 44° |
| 2026-04-28 03:53 | 29.41467 | 119.21399 | 35095 ft | 535 kts | 44° |
| 2026-04-28 03:54 | 29.46482 | 119.27771 | 35096 ft | 533 kts | 44° |
| 2026-04-28 03:54 | 29.51463 | 119.34109 | 35110 ft | 535 kts | 44° |
| 2026-04-28 03:55 | 29.56490 | 119.40540 | 35101 ft | 536 kts | 46° |
| 2026-04-28 03:55 | 29.60470 | 119.47860 | 35121 ft | 545 kts | 64° |
| 2026-04-28 03:56 | 29.62546 | 119.56166 | 34552 ft | 535 kts | 81° |
| 2026-04-28 03:56 | 29.62871 | 119.60442 | 33341 ft | 541 kts | 89° |
| 2026-04-28 03:56 | 29.62813 | 119.64876 | 31963 ft | 550 kts | 92° |
| 2026-04-28 03:57 | 29.62699 | 119.69274 | 30960 ft | 550 kts | 92° |
| 2026-04-28 03:57 | 29.62597 | 119.73650 | 30434 ft | 540 kts | 92° |
| 2026-04-28 03:57 | 29.62498 | 119.77947 | 30022 ft | 530 kts | 92° |
| 2026-04-28 03:57 | 29.62402 | 119.82183 | 29411 ft | 524 kts | 92° |
| 2026-04-28 03:58 | 29.62307 | 119.86359 | 28761 ft | 519 kts | 93° |
| 2026-04-28 03:58 | 29.62213 | 119.90526 | 28136 ft | 514 kts | 93° |
| 2026-04-28 03:58 | 29.62119 | 119.94616 | 27508 ft | 510 kts | 93° |
| 2026-04-28 03:58 | 29.62027 | 119.98627 | 26933 ft | 504 kts | 93° |
| 2026-04-28 03:59 | 29.61934 | 120.02647 | 26303 ft | 500 kts | 93° |
| 2026-04-28 03:59 | 29.61841 | 120.06637 | 25686 ft | 495 kts | 93° |
| 2026-04-28 03:59 | 29.61749 | 120.10562 | 25100 ft | 490 kts | 93° |
| 2026-04-28 03:59 | 29.61656 | 120.14473 | 24475 ft | 486 kts | 93° |
| 2026-04-28 04:00 | 29.61563 | 120.18368 | 23832 ft | 482 kts | 93° |
| 2026-04-28 04:00 | 29.61471 | 120.22147 | 23292 ft | 476 kts | 93° |
| 2026-04-28 04:00 | 29.61378 | 120.25950 | 22711 ft | 472 kts | 93° |
| 2026-04-28 04:00 | 29.61291 | 120.29707 | 22097 ft | 468 kts | 93° |
| 2026-04-28 04:01 | 29.61205 | 120.33418 | 21516 ft | 464 kts | 93° |
| 2026-04-28 04:01 | 29.61118 | 120.37131 | 20976 ft | 459 kts | 93° |
| 2026-04-28 04:01 | 29.61031 | 120.40805 | 20394 ft | 456 kts | 93° |
| 2026-04-28 04:01 | 29.60944 | 120.44413 | 19804 ft | 452 kts | 93° |
| 2026-04-28 04:02 | 29.60855 | 120.48075 | 19194 ft | 449 kts | 93° |
| 2026-04-28 04:02 | 29.60767 | 120.51652 | 18623 ft | 445 kts | 93° |
| 2026-04-28 04:02 | 29.60678 | 120.55209 | 18058 ft | 441 kts | 93° |
| 2026-04-28 04:02 | 29.60590 | 120.58741 | 17503 ft | 437 kts | 93° |
| 2026-04-28 04:03 | 29.60501 | 120.62230 | 16861 ft | 435 kts | 93° |
| 2026-04-28 04:03 | 29.60410 | 120.65768 | 16263 ft | 431 kts | 94° |
| 2026-04-28 04:03 | 29.60321 | 120.69192 | 15711 ft | 427 kts | 94° |
| 2026-04-28 04:03 | 29.60232 | 120.72594 | 15142 ft | 422 kts | 94° |
| 2026-04-28 04:04 | 29.60143 | 120.75971 | 14595 ft | 419 kts | 94° |
| 2026-04-28 04:04 | 29.60182 | 120.79327 | 13980 ft | 417 kts | 86° |
| 2026-04-28 04:04 | 29.60706 | 120.82610 | 13336 ft | 417 kts | 75° |
| 2026-04-28 04:04 | 29.61710 | 120.85683 | 12836 ft | 411 kts | 65° |
| 2026-04-28 04:05 | 29.62967 | 120.88628 | 12352 ft | 405 kts | 64° |
| 2026-04-28 04:05 | 29.64080 | 120.91635 | 11850 ft | 399 kts | 74° |
| 2026-04-28 04:05 | 29.64666 | 120.94744 | 11304 ft | 393 kts | 86° |
| 2026-04-28 04:05 | 29.64804 | 120.97863 | 10852 ft | 386 kts | 91° |
| 2026-04-28 04:06 | 29.64846 | 121.00935 | 10365 ft | 381 kts | 92° |
| 2026-04-28 04:06 | 29.64875 | 121.03993 | 9835 ft | 376 kts | 92° |
| 2026-04-28 04:06 | 29.64896 | 121.07014 | 9372 ft | 370 kts | 92° |
| 2026-04-28 04:06 | 29.64911 | 121.09943 | 8880 ft | 365 kts | 92° |
| 2026-04-28 04:07 | 29.64922 | 121.12861 | 8405 ft | 359 kts | 92° |
| 2026-04-28 04:07 | 29.64930 | 121.15747 | 7945 ft | 354 kts | 92° |
| 2026-04-28 04:07 | 29.64935 | 121.18552 | 7473 ft | 348 kts | 92° |
| 2026-04-28 04:07 | 29.64938 | 121.21310 | 6959 ft | 344 kts | 92° |
| 2026-04-28 04:08 | 29.64939 | 121.24044 | 6475 ft | 338 kts | 91° |
| 2026-04-28 04:08 | 29.64940 | 121.26757 | 5992 ft | 333 kts | 91° |
| 2026-04-28 04:08 | 29.64939 | 121.29458 | 5456 ft | 329 kts | 91° |
| 2026-04-28 04:08 | 29.64938 | 121.32056 | 4995 ft | 324 kts | 91° |
| 2026-04-28 04:09 | 29.64938 | 121.32925 | 4932 ft | 321 kts | 91° |